Time;durP1;ratioP1;P1;durP2;ratioP2;P2;SDS_P1;SDS_P2;PMS_P1;PMS_P2;Temp;Humidity;BMP_temperature;BMP_pressure;BME280_temperature;BME280_humidity;BME280_pressure;Samples;Min_cycle;Max_cycle;Signal;HPM_P1;HPM_P2
2021/05/17 00:01:50;;;;;;;1.35;0.52;;;;;;;8.05;53.68;100017.53;5002594;28;20537;-64
2021/05/17 00:04:15;;;;;;;2.58;0.50;;;;;;;7.96;53.83;100017.94;5003985;28;20045;-65
2021/05/17 00:06:41;;;;;;;1.67;0.60;;;;;;;7.93;53.87;100012.84;5001535;28;20053;-62
2021/05/17 00:09:07;;;;;;;1.35;0.40;;;;;;;7.88;53.72;100009.59;5001163;28;20379;-64
2021/05/17 00:11:33;;;;;;;1.33;0.57;;;;;;;7.81;53.94;100014.22;5002238;28;20125;-65
2021/05/17 00:13:58;;;;;;;4.82;0.50;;;;;;;7.87;53.73;100013.09;5002007;28;20033;-64
2021/05/17 00:16:24;;;;;;;1.60;0.77;;;;;;;7.67;53.82;100012.19;5004497;28;20049;-64
2021/05/17 00:18:50;;;;;;;2.08;0.90;;;;;;;7.53;53.92;100006.66;5002689;28;20072;-63
2021/05/17 00:21:15;;;;;;;0.63;0.43;;;;;;;7.41;54.27;100008.03;5007711;28;20230;-63
2021/05/17 00:23:41;;;;;;;3.85;0.65;;;;;;;7.39;54.47;100003.78;5005856;28;20502;-64
2021/05/17 00:26:07;;;;;;;3.80;0.60;;;;;;;7.48;54.45;100003.41;5007894;28;20496;-66
2021/05/17 00:28:33;;;;;;;2.30;0.50;;;;;;;7.42;54.36;100001.94;5007357;28;20102;-64
2021/05/17 00:30:59;;;;;;;1.65;0.55;;;;;;;7.47;54.25;99996.53;5007623;28;20029;-64
2021/05/17 00:33:24;;;;;;;1.67;0.65;;;;;;;7.39;54.30;100001.19;5007189;28;20026;-67
2021/05/17 00:35:50;;;;;;;2.67;0.95;;;;;;;7.28;54.74;99996.44;5008003;28;20098;-66
2021/05/17 00:38:20;;;;;;;1.35;0.65;;;;;;;7.19;54.57;100000.25;5006984;28;20040;-63
2021/05/17 00:40:46;;;;;;;2.47;0.85;;;;;;;7.10;55.01;100000.59;5005746;28;20108;-68
2021/05/17 00:43:13;;;;;;;2.35;0.60;;;;;;;7.04;54.91;100001.72;5013713;28;20057;-67
2021/05/17 00:45:39;;;;;;;2.60;0.60;;;;;;;6.98;55.13;100001.09;5005999;28;20057;-65
2021/05/17 00:48:06;;;;;;;3.78;0.82;;;;;;;6.90;55.10;100004.81;5003781;28;20457;-66
2021/05/17 00:50:31;;;;;;;3.17;0.90;;;;;;;6.83;55.04;100003.38;5006353;28;20489;-65
2021/05/17 00:52:58;;;;;;;3.22;0.95;;;;;;;6.81;55.38;100001.75;5006776;28;20037;-65
2021/05/17 00:55:26;;;;;;;1.92;0.60;;;;;;;6.83;55.14;100003.38;5006590;28;20049;-65
2021/05/17 00:57:52;;;;;;;2.63;0.95;;;;;;;6.77;55.30;99995.78;5022534;28;20125;-65
2021/05/17 01:00:25;;;;;;;2.20;0.73;;;;;;;6.77;55.08;99990.59;5006357;28;20037;-67
2021/05/17 01:02:55;;;;;;;1.65;0.85;;;;;;;6.76;55.26;99993.28;5007030;28;20033;-65
2021/05/17 01:05:51;;;;;;;2.47;0.95;;;;;;;6.73;55.45;100001.16;4997893;28;20042;-65
2021/05/17 01:08:22;;;;;;;1.60;0.55;;;;;;;6.68;55.57;100009.13;5006480;28;20082;-68
2021/05/17 01:10:54;;;;;;;1.48;0.70;;;;;;;6.70;55.10;99994.34;5005418;28;20025;-68
2021/05/17 01:13:20;;;;;;;1.77;0.90;;;;;;;6.65;54.99;99999.72;5004794;28;20490;-68
2021/05/17 01:15:49;;;;;;;1.83;0.52;;;;;;;6.57;54.93;99998.31;5007419;28;20038;-67
2021/05/17 01:18:18;;;;;;;2.53;0.88;;;;;;;6.52;55.22;99995.88;5007891;28;20040;-66
2021/05/17 01:20:47;;;;;;;1.48;0.52;;;;;;;6.46;55.31;99996.09;5011804;28;20073;-67
2021/05/17 01:25:58;;;;;;;1.10;0.40;;;;;;;6.41;54.96;100001.47;5007382;28;20030;-67
2021/05/17 01:28:29;;;;;;;1.73;0.60;;;;;;;6.34;55.39;100005.19;5006960;28;20044;-62
2021/05/17 01:31:02;;;;;;;0.80;0.40;;;;;;;6.31;55.42;100005.31;5005943;28;20111;-65
2021/05/17 01:33:35;;;;;;;2.47;0.60;;;;;;;6.31;55.56;100004.44;5006955;28;20112;-65
2021/05/17 01:36:02;;;;;;;1.33;0.55;;;;;;;6.38;55.43;100005.94;5007780;28;20108;-65
2021/05/17 01:38:28;;;;;;;1.73;0.38;;;;;;;6.32;55.54;100007.00;5004598;28;20121;-64
2021/05/17 01:40:56;;;;;;;1.52;0.40;;;;;;;6.51;55.42;100002.00;5007384;28;20042;-65
2021/05/17 01:43:23;;;;;;;1.27;0.60;;;;;;;6.41;55.50;100001.47;5002877;28;20120;-65
2021/05/17 01:45:50;;;;;;;1.00;0.57;;;;;;;6.39;55.58;100000.66;5005511;28;20107;-64
2021/05/17 01:48:27;;;;;;;1.35;0.50;;;;;;;6.42;55.69;100008.38;5004380;28;20034;-64
2021/05/17 01:50:53;;;;;;;1.45;0.90;;;;;;;6.44;55.96;100011.75;5007078;28;20487;-64
2021/05/17 01:53:19;;;;;;;2.20;0.63;;;;;;;6.60;55.80;100006.00;5005705;28;20068;-65
2021/05/17 01:55:45;;;;;;;1.98;0.50;;;;;;;6.63;56.13;100013.66;5005454;28;20034;-64
2021/05/17 01:58:22;;;;;;;1.38;0.50;;;;;;;6.66;55.71;100013.53;5005576;28;20048;-65
2021/05/17 02:00:52;;;;;;;1.70;0.65;;;;;;;6.74;56.01;100008.91;5005725;28;20038;-64
2021/05/17 02:03:17;;;;;;;2.78;0.82;;;;;;;6.85;56.00;100006.75;5005199;28;20026;-63
2021/05/17 02:05:46;;;;;;;1.08;0.50;;;;;;;7.00;56.29;100010.53;5003587;28;20100;-64
2021/05/17 02:08:16;;;;;;;1.90;0.82;;;;;;;7.08;56.16;100010.22;4992999;28;20040;-65
2021/05/17 02:10:45;;;;;;;3.33;0.90;;;;;;;7.07;55.50;100008.53;5005366;28;20161;-64
2021/05/17 02:13:17;;;;;;;3.67;0.77;;;;;;;7.12;55.65;100004.81;5006192;28;20026;-64
2021/05/17 02:15:45;;;;;;;2.17;0.90;;;;;;;7.23;55.74;100008.78;5005448;28;20049;-66
2021/05/17 02:18:11;;;;;;;1.10;0.70;;;;;;;7.35;55.64;100003.06;5006542;28;20041;-64
2021/05/17 02:20:40;;;;;;;1.77;1.13;;;;;;;7.35;55.21;100010.03;5005145;28;20034;-66
2021/05/17 02:23:09;;;;;;;3.22;0.90;;;;;;;7.43;55.40;100010.56;5004365;28;20323;-65
2021/05/17 02:25:39;;;;;;;3.00;0.90;;;;;;;7.54;55.18;100010.97;5004443;28;20407;-66
2021/05/17 02:28:05;;;;;;;4.10;0.93;;;;;;;7.52;55.29;100008.44;5005953;28;20526;-67
2021/05/17 02:30:31;;;;;;;1.55;0.90;;;;;;;7.53;55.16;99999.75;5003879;28;20058;-64
2021/05/17 02:32:57;;;;;;;4.28;1.25;;;;;;;7.57;55.41;100005.66;5004511;28;20113;-66
2021/05/17 02:35:36;;;;;;;1.00;0.52;;;;;;;7.60;55.15;100008.16;5002501;28;20042;-65
2021/05/17 02:38:02;;;;;;;1.95;1.17;;;;;;;7.64;55.07;100004.50;5003374;28;20030;-65
2021/05/17 02:40:32;;;;;;;1.83;0.75;;;;;;;7.62;55.22;100013.28;5004234;28;20030;-65
2021/05/17 02:43:01;;;;;;;3.58;0.90;;;;;;;7.70;54.66;100012.06;5005554;28;20026;-64
2021/05/17 02:45:34;;;;;;;1.75;0.73;;;;;;;7.70;54.74;100012.06;5003721;28;20560;-65
2021/05/17 02:48:03;;;;;;;1.58;0.93;;;;;;;7.52;54.45;100008.44;5004351;28;20075;-63
2021/05/17 02:50:30;;;;;;;2.30;0.77;;;;;;;7.46;54.58;100010.44;5003716;28;20021;-66
2021/05/17 02:52:57;;;;;;;2.05;1.20;;;;;;;7.51;54.83;100016.28;5005703;28;20266;-68
2021/05/17 02:55:28;;;;;;;1.70;1.10;;;;;;;7.57;54.59;100028.22;5005368;28;20119;-64
2021/05/17 02:58:07;;;;;;;1.50;0.50;;;;;;;7.52;54.58;100020.59;4997809;28;20709;-65
2021/05/17 03:00:37;;;;;;;1.45;0.93;;;;;;;7.53;54.72;100024.88;5003897;28;20072;-63
2021/05/17 03:03:24;;;;;;;1.27;0.85;;;;;;;7.51;54.63;100024.94;4993783;28;20025;-65
2021/05/17 03:06:04;;;;;;;2.83;1.33;;;;;;;7.52;55.03;100023.19;5000288;28;20034;-64
2021/05/17 03:09:05;;;;;;;4.13;1.25;;;;;;;7.47;54.71;100019.94;5005424;28;20382;-66
2021/05/17 03:11:47;;;;;;;1.70;1.10;;;;;;;7.47;54.73;100019.94;4994713;28;20025;-64
2021/05/17 03:14:16;;;;;;;4.90;1.23;;;;;;;7.42;54.83;100021.84;5004387;28;20026;-63
2021/05/17 03:16:52;;;;;;;3.70;1.00;;;;;;;7.46;54.67;100024.28;5001444;28;20525;-64
2021/05/17 03:19:20;;;;;;;2.23;1.10;;;;;;;7.50;54.81;100025.00;5003448;28;20130;-64
2021/05/17 03:21:46;;;;;;;4.00;1.10;;;;;;;7.49;55.00;100024.16;5004197;28;20081;-66
2021/05/17 03:24:12;;;;;;;2.13;1.42;;;;;;;7.61;54.67;100027.19;5002817;28;20042;-65
2021/05/17 03:26:40;;;;;;;4.20;1.35;;;;;;;7.67;54.85;100027.81;4997203;28;20029;-64
2021/05/17 03:29:05;;;;;;;4.28;1.88;;;;;;;7.73;54.86;100035.34;5004745;28;20129;-65
2021/05/17 03:31:31;;;;;;;4.88;1.90;;;;;;;7.78;54.74;100034.28;5003111;28;20037;-65
2021/05/17 03:33:57;;;;;;;2.20;1.83;;;;;;;7.74;54.50;100036.19;5003424;28;20037;-63
2021/05/17 03:36:23;;;;;;;3.53;1.70;;;;;;;7.72;54.58;100031.03;5002833;28;20029;-67
2021/05/17 03:38:48;;;;;;;2.53;1.48;;;;;;;7.91;54.83;100045.88;5004669;28;20076;-63
2021/05/17 03:41:14;;;;;;;3.40;1.90;;;;;;;7.91;54.42;100043.28;5003356;28;20038;-66
2021/05/17 03:43:39;;;;;;;3.83;1.75;;;;;;;8.01;54.45;100041.16;5004426;28;20033;-66
2021/05/17 03:46:05;;;;;;;2.92;1.73;;;;;;;8.11;54.52;100043.31;5004442;28;20153;-65
2021/05/17 03:48:30;;;;;;;4.05;2.65;;;;;;;8.06;53.63;100042.63;5003896;28;20502;-67
2021/05/17 03:50:56;;;;;;;5.35;2.50;;;;;;;8.01;53.96;100042.00;5005053;28;20030;-64
2021/05/17 03:53:21;;;;;;;5.32;2.20;;;;;;;7.99;54.00;100043.81;5002191;28;20408;-63
2021/05/17 03:55:47;;;;;;;3.95;2.13;;;;;;;8.04;54.43;100044.44;5002615;28;20052;-64
2021/05/17 03:58:12;;;;;;;3.80;2.13;;;;;;;8.12;54.36;100042.38;5002984;28;20029;-64
2021/05/17 04:00:38;;;;;;;3.88;2.55;;;;;;;8.24;53.71;100047.97;5004380;28;20037;-65
2021/05/17 04:03:12;;;;;;;4.97;2.58;;;;;;;8.28;54.07;100046.91;5004293;28;20077;-64
2021/05/17 04:06:06;;;;;;;5.32;2.42;;;;;;;8.28;53.65;100047.75;5002997;28;20109;-64
2021/05/17 04:13:54;;;;;;;5.80;2.78;;;;;;;8.30;54.14;100053.75;5002455;28;20492;-64
2021/05/17 04:16:20;;;;;;;6.53;3.05;;;;;;;8.49;53.62;100043.34;5004429;28;20117;-67
2021/05/17 04:18:46;;;;;;;6.35;3.00;;;;;;;8.48;53.73;100043.44;5003079;28;20038;-66
2021/05/17 04:21:12;;;;;;;7.57;3.67;;;;;;;8.48;53.37;100046.88;5002687;28;20041;-65
2021/05/17 04:23:37;;;;;;;3.05;2.58;;;;;;;8.48;52.95;100048.66;5002350;28;20044;-63
2021/05/17 04:26:03;;;;;;;3.10;2.72;;;;;;;8.66;53.12;100050.44;5003430;28;20110;-65
2021/05/17 04:28:29;;;;;;;3.60;2.72;;;;;;;8.81;52.92;100051.53;5004067;28;20502;-65
2021/05/17 04:30:55;;;;;;;4.53;3.17;;;;;;;8.94;52.35;100044.84;4992482;28;20482;-66
2021/05/17 04:33:20;;;;;;;3.92;2.75;;;;;;;9.05;52.34;100046.09;5003617;28;20034;-62
2021/05/17 04:35:45;;;;;;;5.68;2.85;;;;;;;8.93;51.93;100053.56;5003422;28;20030;-64
2021/05/17 04:38:11;;;;;;;5.30;3.10;;;;;;;9.14;52.24;100049.13;5002178;28;20032;-66
2021/05/17 04:40:36;;;;;;;5.10;3.08;;;;;;;9.25;52.30;100052.97;5000128;28;20033;-66
2021/05/17 04:43:03;;;;;;;3.45;2.38;;;;;;;9.31;51.51;100056.13;5002040;28;20040;-66
2021/05/17 04:45:28;;;;;;;5.93;3.38;;;;;;;9.35;51.45;100060.28;5001922;28;20036;-67
2021/05/17 04:47:55;;;;;;;4.10;2.63;;;;;;;9.50;52.06;100050.03;5003191;28;20460;-66
2021/05/17 04:50:22;;;;;;;4.28;2.75;;;;;;;9.66;51.90;100053.59;5003339;28;20040;-63
2021/05/17 04:52:48;;;;;;;5.07;2.63;;;;;;;9.78;51.34;100059.97;4992806;28;20026;-66
2021/05/17 04:55:14;;;;;;;3.58;2.42;;;;;;;9.89;51.17;100056.84;5003881;28;20048;-64
2021/05/17 04:57:40;;;;;;;5.35;3.55;;;;;;;10.09;51.34;100061.06;5003004;28;20061;-67
2021/05/17 05:00:07;;;;;;;7.50;3.60;;;;;;;10.11;50.51;100069.66;5004100;28;20446;-66
2021/05/17 05:02:33;;;;;;;3.78;2.42;;;;;;;10.11;50.33;100067.06;5003056;28;20434;-64
2021/05/17 05:04:59;;;;;;;4.53;3.42;;;;;;;9.99;50.26;100063.28;5002044;28;20030;-65
2021/05/17 05:07:24;;;;;;;7.45;2.75;;;;;;;9.83;50.24;100064.97;5005422;28;20208;-65
2021/05/17 05:09:50;;;;;;;6.93;3.58;;;;;;;9.84;50.79;100064.06;5006871;28;20038;-65
2021/05/17 05:12:15;;;;;;;5.07;3.25;;;;;;;9.75;50.99;100073.16;5006639;28;20036;-62
2021/05/17 05:14:41;;;;;;;6.00;3.40;;;;;;;9.78;50.99;100073.84;5007567;28;20434;-64
2021/05/17 05:17:06;;;;;;;6.30;3.55;;;;;;;9.66;51.31;100066.63;5006599;28;20529;-63
2021/05/17 05:19:32;;;;;;;4.13;3.35;;;;;;;9.64;51.71;100071.06;5005051;28;20037;-64
2021/05/17 05:21:58;;;;;;;7.55;3.97;;;;;;;9.56;51.80;100073.19;4991293;28;20022;-63
2021/05/17 05:24:24;;;;;;;5.32;3.47;;;;;;;9.59;52.21;100078.28;5006194;28;20029;-63
2021/05/17 05:34:33;;;;;;;8.98;3.95;;;;;;;9.72;51.87;100079.38;5004924;28;20030;-68
2021/05/17 05:36:59;;;;;;;6.05;4.32;;;;;;;9.49;52.85;100088.31;5005979;28;20036;-69
2021/05/17 05:39:25;;;;;;;6.65;3.80;;;;;;;9.22;52.87;100103.50;5006020;28;20046;-68
2021/05/17 05:41:52;;;;;;;9.27;4.32;;;;;;;9.47;53.07;100097.13;5004601;28;20076;-68
2021/05/17 05:44:18;;;;;;;7.68;4.20;;;;;;;9.64;52.44;100101.56;4986917;28;20546;-68
2021/05/17 05:46:43;;;;;;;6.70;5.13;;;;;;;9.65;52.70;100092.78;5004381;28;20030;-66
2021/05/17 05:49:10;;;;;;;6.15;4.45;;;;;;;9.58;52.31;100093.06;5006997;28;20113;-65
2021/05/17 05:51:36;;;;;;;5.53;3.65;;;;;;;9.57;52.51;100098.41;5010342;28;20034;-65
2021/05/17 05:54:01;;;;;;;6.40;3.15;;;;;;;9.42;52.66;100091.28;5010989;28;20483;-65
2021/05/17 05:56:28;;;;;;;5.25;3.42;;;;;;;9.32;53.38;100099.56;5012152;28;20052;-67
2021/05/17 05:58:53;;;;;;;6.80;4.90;;;;;;;9.14;53.52;100100.41;5009090;28;20112;-67
2021/05/17 06:01:19;;;;;;;4.78;3.85;;;;;;;9.51;53.17;100101.28;5007173;28;20499;-64
2021/05/17 06:03:45;;;;;;;6.47;3.70;;;;;;;9.46;53.13;100108.50;5005253;28;21770;-64
2021/05/17 06:06:11;;;;;;;6.82;4.68;;;;;;;9.42;53.45;100096.50;5006530;28;20088;-62
2021/05/17 06:08:40;;;;;;;6.05;4.20;;;;;;;9.48;53.02;100093.63;5004876;28;20077;-64
2021/05/17 06:11:06;;;;;;;8.65;4.35;;;;;;;9.47;53.03;100100.56;5003755;28;20030;-63
2021/05/17 06:13:33;;;;;;;9.50;4.03;;;;;;;9.44;53.65;100102.50;5004257;28;20041;-65
2021/05/17 06:15:59;;;;;;;4.07;3.15;;;;;;;9.54;53.19;100098.53;5002534;28;20108;-63
2021/05/17 06:18:24;;;;;;;5.88;3.75;;;;;;;9.57;53.18;100106.22;5004374;28;20525;-63
2021/05/17 06:20:50;;;;;;;5.88;3.83;;;;;;;9.58;52.89;100102.69;5003380;28;20137;-62
2021/05/17 06:23:16;;;;;;;9.38;3.78;;;;;;;9.77;53.14;100102.66;5001907;28;20045;-62
2021/05/17 06:25:43;;;;;;;9.93;4.05;;;;;;;10.00;53.03;100104.13;5004405;28;20526;-63
2021/05/17 06:28:10;;;;;;;5.22;3.80;;;;;;;10.53;52.43;100105.78;5003313;28;20120;-64
2021/05/17 06:30:44;;;;;;;6.90;4.15;;;;;;;12.04;50.50;100105.41;5003126;28;20216;-64
2021/05/17 06:33:10;;;;;;;8.05;3.75;;;;;;;14.45;44.68;100103.31;5003097;28;20041;-64
2021/05/17 06:35:51;;;;;;;5.47;3.60;;;;;;;15.16;42.18;100106.28;5002953;28;20529;-64
2021/05/17 06:38:16;;;;;;;3.73;2.90;;;;;;;15.85;39.89;100106.53;5003205;28;20041;-64
2021/05/17 06:40:43;;;;;;;6.15;3.33;;;;;;;15.62;39.42;100107.41;5004393;28;20299;-65
2021/05/17 06:43:09;;;;;;;7.63;3.83;;;;;;;15.69;38.87;100114.75;5002006;28;20398;-62
2021/05/17 06:45:35;;;;;;;5.90;3.58;;;;;;;16.03;37.05;100111.44;5002577;28;20057;-64
2021/05/17 06:48:02;;;;;;;11.55;3.83;;;;;;;17.39;36.01;100121.09;5003248;28;20425;-64
2021/05/17 06:50:29;;;;;;;9.40;3.72;;;;;;;18.14;33.54;100111.41;5003591;28;20512;-63
2021/05/17 06:52:55;;;;;;;5.68;4.15;;;;;;;18.15;34.54;100107.81;5003578;28;20429;-64
2021/05/17 06:55:23;;;;;;;5.53;3.67;;;;;;;20.44;32.22;100116.69;5002334;28;20086;-63
2021/05/17 07:02:54;;;;;;;7.15;4.63;;;;;;;18.33;33.50;100110.75;5002844;28;20033;-64
2021/05/17 07:05:22;;;;;;;6.97;4.93;;;;;;;16.94;35.89;100121.16;5001396;28;20494;-63
2021/05/17 07:11:31;;;;;;;6.70;4.95;;;;;;;15.25;38.77;100123.25;5002347;28;20045;-61
2021/05/17 07:13:22;;;;;;;8.80;5.70;;;;;;;14.03;43.16;100120.19;5001829;28;20057;-62
2021/05/17 07:15:48;;;;;;;13.35;5.93;;;;;;;13.22;43.71;100127.09;5003293;28;20037;-63
2021/05/17 07:18:14;;;;;;;7.40;5.90;;;;;;;13.99;42.94;100127.44;5001095;28;20034;-63
2021/05/17 07:25:50;;;;;;;9.38;5.53;;;;;;;14.84;42.18;100130.47;5001491;28;20076;-64
2021/05/17 07:28:16;;;;;;;8.20;5.85;;;;;;;15.01;41.14;100121.38;5000412;28;20057;-63
2021/05/17 07:30:42;;;;;;;10.30;6.25;;;;;;;14.85;41.51;100126.03;5022565;23;20062;-67
2021/05/17 07:33:08;;;;;;;13.75;5.95;;;;;;;14.89;41.37;100127.50;5013576;28;20034;-67
2021/05/17 07:35:33;;;;;;;7.43;5.05;;;;;;;14.67;41.96;100125.53;5015394;28;20079;-67
2021/05/17 07:37:59;;;;;;;13.32;6.40;;;;;;;14.15;42.07;100119.38;5016471;28;20061;-68
2021/05/17 07:40:25;;;;;;;10.77;7.03;;;;;;;14.22;43.24;100119.81;5003704;28;20038;-68
2021/05/17 07:42:50;;;;;;;8.52;5.50;;;;;;;14.62;40.83;100132.91;4993457;28;20014;-66
2021/05/17 07:45:16;;;;;;;8.57;6.10;;;;;;;14.71;40.82;100130.47;4995749;28;20033;-68
2021/05/17 07:47:42;;;;;;;7.55;5.72;;;;;;;15.17;40.53;100129.88;4996439;28;20052;-67
2021/05/17 07:50:08;;;;;;;9.80;6.63;;;;;;;14.96;41.80;100128.75;4994397;28;20117;-67
2021/05/17 07:52:33;;;;;;;7.93;5.22;;;;;;;15.69;40.43;100129.72;4995962;28;20046;-66
2021/05/17 07:54:59;;;;;;;7.63;5.40;;;;;;;15.87;38.76;100132.78;4995649;28;20036;-68
2021/05/17 07:57:24;;;;;;;7.80;5.50;;;;;;;15.07;40.27;100138.53;4992879;28;20066;-67
2021/05/17 07:59:51;;;;;;;9.18;5.47;;;;;;;15.92;39.42;100136.75;4996417;28;20064;-67
2021/05/17 08:02:21;;;;;;;8.55;4.95;;;;;;;15.84;38.77;100131.22;4994578;28;20131;-68
2021/05/17 08:04:50;;;;;;;10.27;5.30;;;;;;;15.55;40.14;100136.84;5000632;28;20545;-68
2021/05/17 08:07:16;;;;;;;12.05;5.47;;;;;;;15.39;40.23;100141.50;4991646;28;20418;-69
2021/05/17 08:09:42;;;;;;;7.63;5.13;;;;;;;15.14;40.85;100147.66;4992217;28;20477;-68
2021/05/17 08:12:08;;;;;;;5.85;4.60;;;;;;;15.01;40.79;100142.41;4993622;28;20038;-68
2021/05/17 08:14:34;;;;;;;6.63;5.00;;;;;;;14.12;41.65;100153.72;4993556;28;20116;-68
2021/05/17 08:17:02;;;;;;;6.95;4.00;;;;;;;15.02;39.34;100143.28;4992993;28;20033;-69
2021/05/17 08:19:27;;;;;;;4.93;3.33;;;;;;;14.22;40.66;100149.56;4993125;28;20042;-68
2021/05/17 08:21:54;;;;;;;6.65;4.43;;;;;;;14.71;40.75;100151.50;4993815;28;20037;-69
2021/05/17 08:24:19;;;;;;;7.38;3.72;;;;;;;14.03;41.24;100149.09;4992388;28;20040;-69
2021/05/17 08:26:45;;;;;;;8.52;4.03;;;;;;;14.40;41.39;100149.28;4995431;28;20033;-69
2021/05/17 08:29:10;;;;;;;13.93;10.02;;;;;;;14.27;41.02;100144.81;4992401;28;20081;-68
2021/05/17 08:31:36;;;;;;;7.35;4.85;;;;;;;14.54;41.56;100154.44;4990620;28;20414;-68
2021/05/17 08:34:02;;;;;;;9.40;4.63;;;;;;;14.34;40.86;100148.75;4992203;28;20045;-68
2021/05/17 08:36:27;;;;;;;6.85;3.90;;;;;;;14.25;40.25;100153.75;4992443;28;20038;-68
2021/05/17 08:38:53;;;;;;;6.03;3.65;;;;;;;14.68;39.95;100148.22;4991644;28;20084;-68
2021/05/17 08:41:19;;;;;;;8.15;3.90;;;;;;;14.55;40.89;100150.88;4990452;28;20561;-68
2021/05/17 08:43:44;;;;;;;4.85;2.72;;;;;;;16.10;37.26;100149.56;4993912;28;20129;-69
2021/05/17 08:46:12;;;;;;;5.30;3.28;;;;;;;16.57;37.08;100153.84;4993583;28;20390;-68
2021/05/17 08:48:46;;;;;;;6.00;2.45;;;;;;;17.39;35.83;100153.63;4994962;28;20109;-68
2021/05/17 08:51:14;;;;;;;3.17;1.75;;;;;;;18.88;33.43;100143.94;4993006;28;20454;-68
2021/05/17 08:53:40;;;;;;;4.57;1.55;;;;;;;19.89;30.35;100143.88;4995954;28;20045;-68
2021/05/17 08:56:06;;;;;;;1.88;1.27;;;;;;;21.55;28.67;100141.53;4995610;28;20051;-69
2021/05/17 08:58:31;;;;;;;3.28;1.10;;;;;;;22.24;26.34;100150.63;5001131;28;20034;-69
2021/05/17 09:01:01;;;;;;;2.38;0.95;;;;;;;23.35;25.28;100140.06;4996359;28;20398;-69
2021/05/17 09:03:26;;;;;;;2.25;0.98;;;;;;;22.49;26.02;100142.78;5012180;28;20487;-69
2021/05/17 09:05:51;;;;;;;2.58;1.02;;;;;;;21.05;26.65;100148.09;4998271;28;20030;-69
2021/05/17 09:08:23;;;;;;;4.75;0.80;;;;;;;20.70;28.06;100143.44;5003929;28;20414;-69
2021/05/17 09:10:49;;;;;;;4.15;1.00;;;;;;;20.66;27.21;100140.28;4995421;28;20116;-68
2021/05/17 09:13:16;;;;;;;1.98;1.10;;;;;;;20.84;27.63;100140.38;4997684;28;20510;-69
2021/05/17 09:15:41;;;;;;;2.42;1.23;;;;;;;21.74;26.88;100136.06;4997716;28;20582;-68
2021/05/17 09:18:08;;;;;;;2.03;0.70;;;;;;;20.24;27.55;100142.44;4995553;28;20129;-68
2021/05/17 09:20:36;;;;;;;4.28;0.55;;;;;;;19.61;29.50;100141.03;4997342;28;20045;-68
2021/05/17 09:23:06;;;;;;;2.85;0.85;;;;;;;20.24;29.01;100134.50;4997079;28;20081;-69
2021/05/17 09:25:31;;;;;;;2.40;0.82;;;;;;;21.51;27.37;100134.81;4997618;28;20129;-69
2021/05/17 09:28:10;;;;;;;2.20;0.85;;;;;;;19.80;30.08;100120.84;4997575;28;20113;-69
2021/05/17 09:30:49;;;;;;;3.00;0.88;;;;;;;18.73;31.29;100131.97;4996729;28;20038;-69
2021/05/17 09:33:19;;;;;;;1.95;0.50;;;;;;;17.27;32.08;100137.91;4993445;28;20029;-69
2021/05/17 09:35:47;;;;;;;3.45;0.82;;;;;;;16.29;34.18;100144.56;4997119;28;20103;-69
2021/05/17 09:38:39;;;;;;;2.13;0.75;;;;;;;17.17;32.92;100136.00;5002990;28;20044;-69
2021/05/17 09:41:06;;;;;;;;;;;;;;;18.19;31.32;100131.28;4992642;28;20053;-69
2021/05/17 09:43:33;;;;;;;3.45;0.95;;;;;;;19.13;30.76;100135.66;4995604;28;19932;-69
2021/05/17 09:46:00;;;;;;;8.18;0.77;;;;;;;17.78;32.07;100134.66;4995717;28;20048;-69
2021/05/17 09:48:29;;;;;;;3.58;1.50;;;;;;;17.93;31.89;100136.06;5002814;28;20030;-68
2021/05/17 09:51:09;;;;;;;1.55;1.02;;;;;;;17.85;31.50;100134.06;4994873;28;20398;-69
2021/05/17 09:53:41;;;;;;;5.28;1.30;;;;;;;19.23;31.19;100142.66;4995119;28;20049;-69
2021/05/17 09:56:13;;;;;;;;;;;;;;;19.68;29.85;100136.88;4994910;28;20403;-69
2021/05/17 09:58:47;;;;;;;4.70;1.77;;;;;;;19.49;31.04;100132.38;4996182;28;19913;-69
2021/05/17 10:01:21;;;;;;;5.43;1.77;;;;;;;18.82;29.57;100140.94;4996167;28;20041;-68
2021/05/17 10:03:50;;;;;;;2.30;1.58;;;;;;;19.14;29.79;100138.13;4991748;28;20086;-67
2021/05/17 10:06:21;;;;;;;4.40;1.83;;;;;;;19.20;30.82;100140.25;4996686;28;20025;-68
2021/05/17 10:08:47;;;;;;;1.60;1.15;;;;;;;18.52;31.34;100141.75;4994729;28;20034;-66
2021/05/17 10:11:13;;;;;;;2.30;1.58;;;;;;;16.63;33.29;100136.72;4996013;28;20095;-68
2021/05/17 10:13:39;;;;;;;2.20;1.05;;;;;;;17.58;32.76;100146.88;4993630;28;20454;-68
2021/05/17 10:16:08;;;;;;;6.25;1.38;;;;;;;17.76;31.54;100139.25;4998098;28;20081;-67
2021/05/17 10:18:35;;;;;;;3.03;1.90;;;;;;;16.88;34.26;100143.59;4993435;28;20034;-69
2021/05/17 10:21:02;;;;;;;4.63;1.45;;;;;;;16.40;34.77;100143.78;4996394;28;20034;-68
2021/05/17 10:23:29;;;;;;;1.58;1.23;;;;;;;16.59;33.90;100143.19;4995822;28;20522;-68
2021/05/17 10:26:06;;;;;;;4.65;1.92;;;;;;;16.70;34.48;100150.28;4996188;28;20034;-67
2021/05/17 10:28:32;;;;;;;1.85;1.65;;;;;;;16.46;34.66;100145.91;4995793;28;20030;-69
2021/05/17 10:31:15;;;;;;;3.88;1.58;;;;;;;15.84;34.87;100144.41;4997727;28;20033;-69
2021/05/17 10:33:43;;;;;;;4.03;1.98;;;;;;;15.83;35.02;100140.06;4993673;28;20462;-70
2021/05/17 10:36:09;;;;;;;2.05;1.50;;;;;;;15.53;35.62;100149.28;4997673;28;20245;-70
2021/05/17 10:38:45;;;;;;;3.15;1.30;;;;;;;15.45;36.60;100146.34;5010031;28;20046;-70
2021/05/17 10:41:11;;;;;;;3.88;1.75;;;;;;;15.30;37.19;100147.44;4995562;28;20041;-69
2021/05/17 10:43:49;;;;;;;2.25;1.58;;;;;;;15.02;36.71;100146.75;4993749;28;20030;-70
2021/05/17 10:49:20;;;;;;;2.47;1.42;;;;;;;14.18;41.05;100161.22;4997295;28;20045;-69
2021/05/17 10:51:46;;;;;;;2.28;1.98;;;;;;;14.60;41.47;100154.03;4992298;28;20326;-69
2021/05/17 10:54:23;;;;;;;2.22;1.83;;;;;;;14.63;41.18;100147.72;4994009;28;20034;-69
2021/05/17 11:02:17;;;;;;;3.83;1.38;;;;;;;13.41;43.87;100157.44;5000587;28;20030;-69
2021/05/17 11:04:48;;;;;;;2.35;1.30;;;;;;;13.75;44.66;100171.91;4992037;28;20420;-70
2021/05/17 11:07:33;;;;;;;2.22;1.52;;;;;;;14.00;43.79;100162.44;4993367;28;20036;-69
2021/05/17 11:10:08;;;;;;;3.70;2.17;;;;;;;14.67;43.79;100159.72;4998573;28;20061;-70
2021/05/17 11:12:37;;;;;;;4.88;2.40;;;;;;;15.16;42.99;100157.13;4996291;28;20034;-70
2021/05/17 11:15:10;;;;;;;3.25;1.98;;;;;;;15.07;41.14;100162.22;4997195;28;20088;-70
2021/05/17 11:17:51;;;;;;;3.58;2.13;;;;;;;15.24;41.57;100153.13;4993394;28;20549;-70
2021/05/17 11:20:43;;;;;;;5.00;2.00;;;;;;;15.09;39.72;100158.53;4994333;28;20030;-70
2021/05/17 11:23:27;;;;;;;3.08;1.63;;;;;;;15.46;40.07;100158.56;4992660;28;20171;-69
2021/05/17 11:26:03;;;;;;;2.85;1.90;;;;;;;15.91;40.19;100153.53;4991707;28;20041;-70
2021/05/17 11:28:41;;;;;;;4.80;2.10;;;;;;;16.14;38.54;100153.63;4992889;28;20042;-69
2021/05/17 11:31:31;;;;;;;2.30;1.85;;;;;;;16.24;38.30;100149.34;4995585;28;20030;-69
2021/05/17 11:34:02;;;;;;;4.00;1.50;;;;;;;15.59;39.35;100154.09;4994358;28;20087;-69
2021/05/17 11:36:33;;;;;;;;;;;;;;;15.94;39.12;100163.84;4996323;28;20048;-69
2021/05/17 11:39:07;;;;;;;2.33;1.70;;;;;;;15.47;39.74;100169.94;4994650;28;19941;-69
2021/05/17 11:41:40;;;;;;;2.95;2.20;;;;;;;15.16;41.38;100175.56;4990650;28;20069;-69
2021/05/17 11:44:08;;;;;;;3.80;3.08;;;;;;;13.77;44.14;100177.91;4994536;28;20034;-69
2021/05/17 11:46:39;;;;;;;3.30;2.40;;;;;;;12.94;46.42;100185.69;4991168;28;20520;-69
2021/05/17 11:49:06;;;;;;;2.55;1.52;;;;;;;13.75;45.65;100173.69;4993668;28;20042;-68
2021/05/17 11:51:32;;;;;;;2.72;0.88;;;;;;;14.21;41.50;100178.56;4992406;28;20049;-69
2021/05/17 11:53:58;;;;;;;0.88;0.40;;;;;;;14.73;39.24;100175.09;4992370;28;20030;-68
2021/05/17 11:56:41;;;;;;;0.70;0.35;;;;;;;15.70;38.02;100171.75;4994398;28;20038;-69
2021/05/17 11:59:19;;;;;;;0.32;0.10;;;;;;;17.06;35.18;100167.69;4992486;28;20053;-69
2021/05/17 12:01:48;;;;;;;1.20;0.10;;;;;;;18.04;30.74;100170.38;4995891;28;20041;-69
2021/05/17 12:04:14;;;;;;;0.95;0.10;;;;;;;18.88;31.63;100175.69;4996203;28;20041;-69
2021/05/17 12:06:45;;;;;;;0.15;0.00;;;;;;;19.35;32.50;100171.69;4989370;28;20030;-69
2021/05/17 12:09:10;;;;;;;2.10;0.52;;;;;;;19.18;32.61;100171.34;4995929;28;20029;-69
2021/05/17 12:11:50;;;;;;;3.17;0.80;;;;;;;18.54;32.41;100176.88;4992696;28;20905;-69
2021/05/17 12:14:15;;;;;;;2.72;1.60;;;;;;;17.24;35.94;100176.81;4991897;28;20528;-71